createdAt,value
2019-04-28T00:01:27.233Z,75
2019-04-28T00:06:30.673Z,75.900002
2019-04-28T00:11:31.776Z,76.800003
2019-04-28T00:16:33.842Z,76.699997
2019-04-28T00:21:36.177Z,77.699997
2019-04-28T00:26:38.658Z,76.699997
2019-04-28T00:31:41.331Z,79.599998
2019-04-28T00:36:43.202Z,77.900002
2019-04-28T00:41:45.252Z,77.900002
2019-04-28T00:46:47.595Z,80.5
2019-04-28T00:51:50.901Z,83.599998
2019-04-28T00:56:52.292Z,84.199997
2019-04-28T01:01:54.475Z,85
2019-04-28T01:06:56.928Z,85.699997
2019-04-28T01:12:01.674Z,86.300003
2019-04-28T01:17:01.577Z,89.800003
2019-04-28T01:22:03.628Z,95.900002
2019-04-28T01:27:05.962Z,99.900002
2019-04-28T01:32:08.212Z,99.900002
2019-04-28T01:37:10.513Z,99.900002
2019-04-28T01:42:12.882Z,99.900002
2019-04-28T01:47:15.196Z,99.900002
2019-04-28T01:52:17.487Z,99.900002
2019-04-28T01:57:21.462Z,99.900002
2019-04-28T02:02:21.983Z,99.900002
2019-04-28T02:07:24.259Z,99.900002
2019-04-28T02:12:26.670Z,99.900002
2019-04-28T02:17:30.360Z,99.900002
2019-04-28T02:22:31.809Z,99.900002
2019-04-28T02:27:33.450Z,99.900002
2019-04-28T02:32:35.798Z,99.900002
2019-04-28T02:37:40.356Z,99.900002
2019-04-28T02:42:41.072Z,99.900002
2019-04-28T02:47:42.709Z,99.900002
2019-04-28T02:52:44.965Z,99.900002
2019-04-28T02:57:47.195Z,99.900002
2019-04-28T03:02:51.298Z,99.900002
2019-04-28T03:07:51.992Z,99.900002
2019-04-28T03:12:54.079Z,99.900002
2019-04-28T03:17:56.504Z,99.900002
2019-04-28T03:23:00.991Z,99.900002
2019-04-28T03:28:01.116Z,99.900002
2019-04-28T03:33:10.726Z,99.900002
2019-04-28T03:38:05.530Z,99.900002
2019-04-28T03:43:10.432Z,99.900002
2019-04-28T03:48:11.413Z,99.900002
2019-04-28T03:53:12.495Z,99.900002
2019-04-28T03:58:14.778Z,99.900002
2019-04-28T04:03:17.042Z,99.900002
2019-04-28T04:08:20.893Z,99.900002
2019-04-28T04:13:21.768Z,99.900002
2019-04-28T04:18:24.091Z,99.900002
2019-04-28T04:23:26.270Z,99.900002
2019-04-28T04:28:30.391Z,99.900002
2019-04-28T04:33:31.167Z,99.900002
2019-04-28T04:38:33.271Z,99.900002
2019-04-28T04:43:35.414Z,99.900002
2019-04-28T04:48:37.714Z,99.900002
2019-04-28T04:53:40.798Z,99.900002
2019-04-28T04:58:42.287Z,99.900002
2019-04-28T05:03:44.662Z,99.900002
2019-04-28T05:08:46.879Z,99.900002
2019-04-28T05:13:49.804Z,99.900002
2019-04-28T05:18:51.500Z,99.900002
2019-04-28T05:23:53.926Z,99.900002
2019-04-28T05:28:56.269Z,99.900002
2019-04-28T05:33:59.992Z,99.900002
2019-04-28T05:39:00.754Z,99.900002
2019-04-28T05:44:03.030Z,99.900002
2019-04-28T05:49:05.290Z,99.900002
2019-04-28T05:54:07.611Z,99.900002
2019-04-28T05:59:09.929Z,99.900002
2019-04-28T06:04:12.221Z,99.900002
2019-04-28T06:09:14.644Z,99.900002
2019-04-28T06:14:16.780Z,99.900002
2019-04-28T06:19:20.207Z,99.900002
2019-04-28T06:24:21.311Z,99.900002
2019-04-28T06:29:23.628Z,99.900002
2019-04-28T06:34:25.845Z,99.900002
2019-04-28T06:39:28.277Z,99.900002
2019-04-28T06:44:30.621Z,99.900002
2019-04-28T06:49:32.751Z,99.900002
2019-04-28T06:54:35.027Z,99.900002
2019-04-28T06:59:37.321Z,99.900002
2019-04-28T07:04:39.711Z,99.900002
2019-04-28T07:09:41.963Z,99.900002
2019-04-28T07:14:44.266Z,99.900002
2019-04-28T07:19:46.448Z,99.900002
2019-04-28T07:24:48.830Z,99.900002
2019-04-28T07:29:51.105Z,99.900002
2019-04-28T07:34:53.415Z,99.900002
2019-04-28T07:39:56.819Z,99.900002
2019-04-28T07:44:58.056Z,99.900002
2019-04-28T07:50:00.302Z,99.900002
2019-04-28T07:55:02.640Z,99.900002
2019-04-28T08:00:04.953Z,99.900002
2019-04-28T08:05:07.185Z,99.900002
2019-04-28T08:10:09.554Z,99.900002
2019-04-28T08:15:11.898Z,99.900002
2019-04-28T08:20:14.252Z,99.900002
2019-04-28T08:25:16.378Z,99.900002
2019-04-28T08:30:18.611Z,99.900002
2019-04-28T08:35:21.004Z,99.900002
2019-04-28T08:40:23.228Z,99.900002
2019-04-28T08:50:27.810Z,99.900002
2019-04-28T08:55:30.112Z,99.900002
2019-04-28T09:00:32.486Z,99.900002
2019-04-28T09:05:34.737Z,99.900002
2019-04-28T09:10:37.077Z,99.900002
2019-04-28T09:15:39.353Z,99.900002
2019-04-28T09:20:41.671Z,99.900002
2019-04-28T09:25:43.955Z,99.900002
2019-04-28T09:30:46.253Z,99.900002
2019-04-28T09:35:48.592Z,99.900002
2019-04-28T09:40:50.960Z,99.900002
2019-04-28T09:45:53.040Z,99.900002
2019-04-28T09:50:55.333Z,99.900002
2019-04-28T09:55:57.644Z,99.900002
2019-04-28T10:01:00.009Z,99.900002
2019-04-28T10:06:02.300Z,99.900002
2019-04-28T10:11:04.646Z,99.900002
2019-04-28T10:16:06.939Z,99.900002
2019-04-28T10:21:09.138Z,99.900002
2019-04-28T10:26:11.471Z,99.900002
2019-04-28T10:31:13.669Z,99.900002
2019-04-28T10:36:16.059Z,99.900002
2019-04-28T10:41:18.437Z,99.900002
2019-04-28T10:46:20.811Z,99.900002
2019-04-28T10:51:22.982Z,99.900002
2019-04-28T10:56:25.105Z,99.900002
2019-04-28T11:01:27.488Z,99.900002
2019-04-28T11:06:29.831Z,98.5
2019-04-28T11:11:32.025Z,98.599998
2019-04-28T11:16:34.434Z,96.099998
2019-04-28T11:21:36.708Z,97.300003
2019-04-28T11:26:39.111Z,99.900002
2019-04-28T11:31:41.231Z,97.599998
2019-04-28T11:36:43.668Z,99.900002
2019-04-28T11:41:45.870Z,81.699997
2019-04-28T11:46:48.121Z,84.599998
2019-04-28T11:51:50.431Z,69.099998
2019-04-28T11:56:52.733Z,66
2019-04-28T12:01:55.071Z,72.199997
2019-04-28T12:06:57.334Z,76
2019-04-28T12:11:59.539Z,73.599998
2019-04-28T12:17:01.842Z,72
2019-04-28T12:22:04.152Z,84.5
2019-04-28T12:27:06.475Z,72.5
2019-04-28T12:32:08.869Z,55.200001
2019-04-28T12:37:11.174Z,62.599998
2019-04-28T12:42:13.410Z,61
2019-04-28T12:47:15.635Z,70.5
2019-04-28T12:52:17.899Z,66
2019-04-28T12:57:20.258Z,64
2019-04-28T13:02:22.618Z,69.199997
2019-04-28T13:07:24.789Z,71.5
2019-04-28T13:12:27.238Z,79.199997
2019-04-28T13:17:29.511Z,70
2019-04-28T13:22:31.751Z,74.900002
2019-04-28T13:27:34.127Z,77.199997
2019-04-28T13:32:36.376Z,78.099998
2019-04-28T13:37:38.683Z,79.599998
2019-04-28T13:42:40.897Z,88.900002
2019-04-28T13:47:43.295Z,92.099998
2019-04-28T13:52:45.614Z,77.599998
2019-04-28T13:57:47.937Z,86
2019-04-28T14:02:50.064Z,78.099998
2019-04-28T14:07:52.382Z,72.300003
2019-04-28T14:12:54.732Z,64.699997
2019-04-28T14:17:57.002Z,63.700001
2019-04-28T14:22:59.243Z,61.200001
2019-04-28T14:28:01.495Z,67.599998
2019-04-28T14:33:03.850Z,67.800003
2019-04-28T14:38:06.139Z,65.800003
2019-04-28T14:43:08.507Z,70.5
2019-04-28T14:48:10.893Z,63.099998
2019-04-28T14:53:13.371Z,75.400002
2019-04-28T14:58:15.295Z,89.599998
2019-04-28T15:03:17.645Z,94.400002
2019-04-28T15:13:22.424Z,93
2019-04-28T15:18:24.492Z,98
2019-04-28T15:23:26.756Z,89.699997
2019-04-28T15:28:29.078Z,84.599998
2019-04-28T15:33:31.500Z,76.400002
2019-04-28T15:38:33.682Z,73
2019-04-28T15:43:35.960Z,65.699997
2019-04-28T15:48:38.242Z,55.200001
2019-04-28T15:53:40.552Z,57.700001
2019-04-28T15:58:42.814Z,62.799999
2019-04-28T16:03:45.378Z,69.900002
2019-04-28T16:08:47.580Z,77
2019-04-28T16:13:49.695Z,79.099998
2019-04-28T16:18:52.079Z,84.199997
2019-04-28T16:23:54.248Z,87.800003
2019-04-28T16:28:56.629Z,85.599998
2019-04-28T16:33:58.955Z,86.599998
2019-04-28T16:39:01.144Z,92.900002
2019-04-28T16:44:03.561Z,95.099998
2019-04-28T16:49:05.801Z,99.900002
2019-04-28T16:54:08.154Z,99.900002
2019-04-28T16:59:10.557Z,99.900002
2019-04-28T17:04:12.664Z,99.400002
2019-04-28T17:09:15.009Z,99.5
2019-04-28T17:14:17.486Z,91.400002
2019-04-28T17:19:19.641Z,96.099998
2019-04-28T17:24:21.927Z,93.699997
2019-04-28T17:29:24.092Z,94.5
2019-04-28T17:34:26.432Z,99.900002
2019-04-28T17:39:28.970Z,99.900002
2019-04-28T17:44:31.141Z,99.900002
2019-04-28T17:49:33.377Z,99.900002
2019-04-28T17:54:35.755Z,99.900002
2019-04-28T17:59:38.014Z,99.900002
2019-04-28T18:04:40.225Z,99.900002
2019-04-28T18:09:42.466Z,99.900002
2019-04-28T18:14:44.873Z,99.900002
2019-04-28T18:19:47.037Z,99.900002
2019-04-28T18:24:49.379Z,99.900002
2019-04-28T18:29:51.654Z,99.900002
2019-04-28T18:34:54.019Z,99.900002
2019-04-28T18:39:56.287Z,99.900002
2019-04-28T18:44:58.552Z,99.900002
2019-04-28T18:50:00.898Z,99.900002
2019-04-28T18:55:03.316Z,99.900002
2019-04-28T19:00:05.516Z,99.900002
2019-04-28T19:05:10.312Z,99.900002
2019-04-28T19:10:10.130Z,99.900002
2019-04-28T19:15:12.452Z,99.900002
2019-04-28T19:20:14.602Z,99.900002
2019-04-28T19:25:16.947Z,99.900002
2019-04-28T19:30:19.198Z,99.900002
2019-04-28T19:35:21.493Z,99.900002
2019-04-28T19:40:23.832Z,99.900002
2019-04-28T19:45:26.304Z,99.900002
2019-04-28T19:50:28.474Z,99.900002
2019-04-28T19:55:30.617Z,99.900002
2019-04-28T20:00:32.959Z,99.900002
2019-04-28T20:05:35.248Z,99.900002
2019-04-28T20:10:37.517Z,99.900002
2019-04-28T20:15:39.913Z,99.900002
2019-04-28T20:20:42.216Z,99.900002
2019-04-28T20:25:44.400Z,99.900002
2019-04-28T20:30:46.777Z,99.900002
2019-04-28T20:35:49.109Z,99.900002
2019-04-28T20:40:51.305Z,99.900002
2019-04-28T20:45:53.569Z,99.900002
2019-04-28T20:50:55.956Z,99.900002
2019-04-28T20:55:58.362Z,99.900002
2019-04-28T21:01:00.612Z,99.900002
2019-04-28T21:06:02.839Z,99.900002
2019-04-28T21:11:05.055Z,99.900002
2019-04-28T21:16:07.570Z,99.900002
2019-04-28T21:21:09.749Z,99.900002
2019-04-28T21:26:11.969Z,99.900002
2019-04-28T21:31:14.302Z,99.900002
2019-04-28T21:36:16.628Z,99.900002
2019-04-28T21:41:18.900Z,99.900002
2019-04-28T21:46:21.205Z,99.900002
2019-04-28T21:51:23.350Z,99.900002
2019-04-28T21:56:25.990Z,99.900002
2019-04-28T22:01:28.060Z,99.900002
2019-04-28T22:06:30.276Z,99.900002
2019-04-28T22:11:32.612Z,99.900002
2019-04-28T22:16:34.939Z,99.900002
2019-04-28T22:21:37.237Z,99.900002
2019-04-28T22:26:39.498Z,99.900002
2019-04-28T22:31:41.708Z,99.900002
2019-04-28T22:36:44.013Z,99.900002
2019-04-28T22:41:46.494Z,99.900002
2019-04-28T22:46:48.652Z,99.900002
2019-04-28T22:51:50.974Z,99.900002
2019-04-28T22:56:53.300Z,99.900002
2019-04-28T23:01:55.579Z,99.900002
2019-04-28T23:06:57.808Z,99.900002
2019-04-28T23:12:00.168Z,99.900002
2019-04-28T23:17:02.448Z,99.900002
2019-04-28T23:22:04.718Z,99.900002
2019-04-28T23:27:07.099Z,99.900002
2019-04-28T23:32:09.494Z,99.900002
2019-04-28T23:37:11.884Z,99.900002
2019-04-28T23:42:13.913Z,99.900002
2019-04-28T23:47:16.169Z,99.900002
2019-04-28T23:52:18.515Z,99.900002
2019-04-28T23:57:20.855Z,99.900002
